createdAt,value
2017-12-11T00:00:05.212Z,7.20
2017-12-11T00:02:08.550Z,7.20
2017-12-11T00:04:12.103Z,7.10
2017-12-11T00:06:15.578Z,7.10
2017-12-11T00:08:19.343Z,7.10
2017-12-11T00:10:22.840Z,7.10
2017-12-11T00:12:26.336Z,7.10
2017-12-11T00:14:30.594Z,7.10
2017-12-11T00:16:34.035Z,7.10
2017-12-11T00:18:37.535Z,7.10
2017-12-11T00:20:41.030Z,7.10
2017-12-11T00:22:48.310Z,7.10
2017-12-11T00:24:51.794Z,7.10
2017-12-11T00:26:55.271Z,7.00
2017-12-11T00:28:59.507Z,7.10
2017-12-11T00:31:02.958Z,7.10
2017-12-11T00:33:06.455Z,7.10
2017-12-11T00:35:09.935Z,7.00
2017-12-11T00:37:13.382Z,7.00
2017-12-11T00:39:16.876Z,7.00
2017-12-11T00:41:20.323Z,7.00
2017-12-11T00:43:23.781Z,7.00
2017-12-11T00:45:27.330Z,7.00
2017-12-11T00:47:30.814Z,7.00
2017-12-11T00:49:34.316Z,7.00
2017-12-11T00:51:38.586Z,7.00
2017-12-11T00:53:42.074Z,7.00
2017-12-11T00:55:45.572Z,7.00
2017-12-11T00:57:50.540Z,7.00
2017-12-11T00:59:54.751Z,7.00
2017-12-11T01:01:58.246Z,7.00
2017-12-11T01:04:02.478Z,7.00
2017-12-11T01:06:05.985Z,7.00
2017-12-11T01:08:09.500Z,7.00
2017-12-11T01:10:12.982Z,6.90
2017-12-11T01:12:16.446Z,6.90
2017-12-11T01:14:20.668Z,6.90
2017-12-11T01:16:24.219Z,6.90
2017-12-11T01:18:27.699Z,6.90
2017-12-11T01:20:31.167Z,6.90
2017-12-11T01:22:34.661Z,6.80
2017-12-11T01:24:38.133Z,6.80
2017-12-11T01:26:43.165Z,6.80
2017-12-11T01:28:46.666Z,6.80
2017-12-11T01:30:50.157Z,6.80
2017-12-11T01:32:53.642Z,6.80
2017-12-11T01:34:57.147Z,6.80
2017-12-11T01:37:01.381Z,6.70
2017-12-11T01:39:04.909Z,6.70
2017-12-11T01:41:09.314Z,6.70
2017-12-11T01:43:12.842Z,6.70
2017-12-11T01:45:17.079Z,6.70
2017-12-11T01:47:20.592Z,6.70
2017-12-11T01:49:24.142Z,6.60
2017-12-11T01:51:28.394Z,6.70
2017-12-11T01:53:31.862Z,6.60
2017-12-11T01:55:35.311Z,6.60
2017-12-11T01:57:38.776Z,6.60
2017-12-11T01:59:42.989Z,6.60
2017-12-11T02:01:46.436Z,6.60
2017-12-11T02:03:50.691Z,6.60
2017-12-11T02:05:54.202Z,6.60
2017-12-11T02:07:57.690Z,6.60
2017-12-11T02:10:01.255Z,6.60
2017-12-11T02:12:04.696Z,6.60
2017-12-11T02:14:08.173Z,6.70
2017-12-11T02:16:12.382Z,6.70
2017-12-11T02:18:15.869Z,6.60
2017-12-11T02:20:19.386Z,6.70
2017-12-11T02:22:23.493Z,6.70
2017-12-11T02:24:27.022Z,6.70
2017-12-11T02:26:30.479Z,6.70
2017-12-11T02:28:33.978Z,6.70
2017-12-11T02:30:37.503Z,6.80
2017-12-11T02:32:40.997Z,6.80
2017-12-11T02:34:44.535Z,6.80
2017-12-11T02:36:48.165Z,6.80
2017-12-11T02:38:51.732Z,6.80
2017-12-11T02:40:55.924Z,6.80
2017-12-11T02:42:59.386Z,6.80
2017-12-11T02:45:02.977Z,6.80
2017-12-11T02:47:06.462Z,6.80
2017-12-11T02:49:10.743Z,6.80
2017-12-11T02:51:14.230Z,6.80
2017-12-11T02:53:19.023Z,6.80
2017-12-11T02:55:22.553Z,6.80
2017-12-11T02:57:26.790Z,6.80
2017-12-11T02:59:30.271Z,6.80
2017-12-11T03:01:33.808Z,6.90
2017-12-11T03:03:37.244Z,6.90
2017-12-11T03:05:40.709Z,6.90
2017-12-11T03:07:44.189Z,6.90
2017-12-11T03:09:47.631Z,6.90
2017-12-11T03:11:51.848Z,6.90
2017-12-11T03:13:55.338Z,6.90
2017-12-11T03:15:58.797Z,6.90
2017-12-11T03:18:02.276Z,6.80
2017-12-11T03:20:05.723Z,6.80
2017-12-11T03:22:09.251Z,6.80
2017-12-11T03:24:12.695Z,6.80
2017-12-11T03:26:16.161Z,6.80
2017-12-11T03:28:19.666Z,6.80
2017-12-11T03:30:23.139Z,6.80
2017-12-11T03:32:26.669Z,6.80
2017-12-11T03:34:30.167Z,6.80
2017-12-11T03:36:34.375Z,6.80
2017-12-11T03:38:38.686Z,6.80
2017-12-11T03:40:42.154Z,6.80
2017-12-11T03:42:45.624Z,6.80
2017-12-11T03:44:49.122Z,6.90
2017-12-11T03:46:52.543Z,6.90
2017-12-11T03:48:56.021Z,6.80
2017-12-11T03:51:00.265Z,6.80
2017-12-11T03:53:03.719Z,6.80
2017-12-11T03:55:07.247Z,6.70
2017-12-11T03:57:10.708Z,6.70
2017-12-11T03:59:14.172Z,6.60
2017-12-11T04:01:17.629Z,6.60
2017-12-11T04:03:21.052Z,6.60
2017-12-11T04:05:24.550Z,6.60
2017-12-11T04:07:28.780Z,6.50
2017-12-11T04:09:36.202Z,6.50
2017-12-11T04:11:39.684Z,6.50
2017-12-11T04:13:44.762Z,6.40
2017-12-11T04:15:48.209Z,6.40
2017-12-11T04:17:51.635Z,6.40
2017-12-11T04:19:55.073Z,6.30
2017-12-11T04:21:58.550Z,6.30
2017-12-11T04:24:03.066Z,6.20
2017-12-11T04:26:07.308Z,6.20
2017-12-11T04:28:10.736Z,6.20
2017-12-11T04:30:14.169Z,6.20
2017-12-11T04:32:18.424Z,6.20
2017-12-11T04:34:21.879Z,6.20
2017-12-11T04:36:26.098Z,6.20
2017-12-11T04:38:29.533Z,6.20
2017-12-11T04:40:32.960Z,6.20
2017-12-11T04:42:37.240Z,6.30
2017-12-11T04:44:40.716Z,6.20
2017-12-11T04:46:44.179Z,6.30
2017-12-11T04:48:47.666Z,6.30
2017-12-11T04:50:51.863Z,6.30
2017-12-11T04:52:55.293Z,6.30
2017-12-11T04:54:59.561Z,6.30
2017-12-11T04:57:03.817Z,6.40
2017-12-11T04:59:07.238Z,6.30
2017-12-11T05:01:10.660Z,6.30
2017-12-11T05:03:14.177Z,6.30
2017-12-11T05:05:18.412Z,6.30
2017-12-11T05:07:21.907Z,6.30
2017-12-11T05:09:25.378Z,6.40
2017-12-11T05:11:29.593Z,6.40
2017-12-11T05:13:33.094Z,6.40
2017-12-11T05:15:36.624Z,6.40
2017-12-11T05:17:40.158Z,6.40
2017-12-11T05:19:44.422Z,6.40
2017-12-11T05:21:47.890Z,6.40
2017-12-11T05:23:52.397Z,6.40
2017-12-11T05:25:56.634Z,6.30
2017-12-11T05:28:00.074Z,6.30
2017-12-11T05:30:03.564Z,6.30
2017-12-11T05:32:07.043Z,6.30
2017-12-11T05:34:10.560Z,6.30
2017-12-11T05:36:14.185Z,6.30
2017-12-11T05:38:19.755Z,6.30
2017-12-11T05:40:23.554Z,6.30
2017-12-11T05:42:28.345Z,6.30
2017-12-11T05:44:32.629Z,6.30
2017-12-11T05:46:36.084Z,6.30
2017-12-11T05:48:39.551Z,6.30
2017-12-11T05:50:43.806Z,6.30
2017-12-11T05:52:47.240Z,6.30
2017-12-11T05:54:50.753Z,6.20
2017-12-11T05:56:54.999Z,6.30
2017-12-11T05:58:58.491Z,6.30
2017-12-11T06:01:01.938Z,6.30
2017-12-11T06:03:06.163Z,6.20
2017-12-11T06:05:10.406Z,6.20
2017-12-11T06:07:13.928Z,6.20
2017-12-11T06:09:17.373Z,6.30
2017-12-11T06:11:20.843Z,6.30
2017-12-11T06:13:24.279Z,6.30
2017-12-11T06:15:28.479Z,6.30
2017-12-11T06:17:32.729Z,6.30
2017-12-11T06:19:36.172Z,6.30
2017-12-11T06:21:40.403Z,6.20
2017-12-11T06:23:45.870Z,6.30
2017-12-11T06:25:49.318Z,6.20
2017-12-11T06:27:52.771Z,6.20
2017-12-11T06:29:56.173Z,6.20
2017-12-11T06:31:59.659Z,6.20
2017-12-11T06:34:03.111Z,6.20
2017-12-11T06:36:06.540Z,6.20
2017-12-11T06:38:10.854Z,6.20
2017-12-11T06:40:14.268Z,6.20
2017-12-11T06:42:17.713Z,6.20
2017-12-11T06:44:21.923Z,6.20
2017-12-11T06:46:25.375Z,6.20
2017-12-11T06:48:28.870Z,6.20
2017-12-11T06:50:32.319Z,6.30
2017-12-11T06:52:35.767Z,6.20
2017-12-11T06:54:39.230Z,6.20
2017-12-11T06:56:42.703Z,6.20
2017-12-11T06:58:46.226Z,6.20
2017-12-11T07:00:49.681Z,6.20
2017-12-11T07:02:53.203Z,6.20
2017-12-11T07:04:56.742Z,6.20
2017-12-11T07:07:00.957Z,6.20
2017-12-11T07:09:04.535Z,6.20
2017-12-11T07:11:07.992Z,6.30
2017-12-11T07:13:11.535Z,6.30
2017-12-11T07:15:18.813Z,6.30
2017-12-11T07:17:23.616Z,6.30
2017-12-11T07:19:28.925Z,6.40
2017-12-11T07:21:33.038Z,6.30
2017-12-11T07:23:38.523Z,6.30
2017-12-11T07:25:42.012Z,6.30
2017-12-11T07:27:46.503Z,6.30
2017-12-11T07:29:50.055Z,6.30
2017-12-11T07:31:53.568Z,6.30
2017-12-11T07:33:57.064Z,6.30
2017-12-11T07:36:01.115Z,6.30
2017-12-11T07:38:04.615Z,6.30
2017-12-11T07:40:08.117Z,6.30
2017-12-11T07:42:11.638Z,6.30
2017-12-11T07:44:15.136Z,6.30
2017-12-11T07:46:18.675Z,6.40
2017-12-11T07:48:22.236Z,6.40
2017-12-11T07:50:25.726Z,6.40
2017-12-11T07:52:30.014Z,6.40
2017-12-11T07:54:34.305Z,6.40
2017-12-11T07:56:37.792Z,6.40
2017-12-11T07:58:41.318Z,6.40
2017-12-11T08:00:44.802Z,6.40
2017-12-11T08:02:48.354Z,6.50
2017-12-11T08:04:52.574Z,6.40
2017-12-11T08:06:56.144Z,6.40
2017-12-11T08:09:00.349Z,6.40
2017-12-11T08:11:04.569Z,6.40
2017-12-11T08:13:08.156Z,6.40
2017-12-11T08:15:11.660Z,6.50
2017-12-11T08:17:15.928Z,6.50
2017-12-11T08:19:19.435Z,6.50
2017-12-11T08:21:22.922Z,6.50
2017-12-11T08:23:27.195Z,6.50
2017-12-11T08:25:31.568Z,6.50
2017-12-11T08:27:35.892Z,6.60
2017-12-11T08:29:39.360Z,6.50
2017-12-11T08:31:42.782Z,6.50
2017-12-11T08:33:47.024Z,6.50
2017-12-11T08:35:51.240Z,6.50
2017-12-11T08:37:58.064Z,6.50
2017-12-11T08:40:04.505Z,6.60
2017-12-11T08:42:10.645Z,6.60
2017-12-11T08:44:14.208Z,6.60
2017-12-11T08:46:17.668Z,6.70
2017-12-11T08:48:21.117Z,6.70
2017-12-11T08:50:25.303Z,6.60
2017-12-11T08:52:29.536Z,6.70
2017-12-11T08:54:33.752Z,6.70
2017-12-11T08:56:37.173Z,6.60
2017-12-11T08:58:41.428Z,6.70
2017-12-11T09:00:45.649Z,6.70
2017-12-11T09:02:49.846Z,6.70
2017-12-11T09:04:54.149Z,6.70
2017-12-11T09:06:57.648Z,6.70
2017-12-11T09:09:02.060Z,6.70
2017-12-11T09:11:05.487Z,6.70
2017-12-11T09:13:08.957Z,6.70
2017-12-11T09:15:12.533Z,6.70
2017-12-11T09:17:15.975Z,6.70
2017-12-11T09:19:19.443Z,6.60
2017-12-11T09:21:23.753Z,6.70
2017-12-11T09:23:27.251Z,6.70
2017-12-11T09:25:30.782Z,6.60
2017-12-11T09:27:34.248Z,6.60
2017-12-11T09:29:37.705Z,6.60
2017-12-11T09:31:41.130Z,6.60
2017-12-11T09:33:45.372Z,6.60
2017-12-11T09:35:48.878Z,6.60
2017-12-11T09:37:52.316Z,6.70
2017-12-11T09:39:55.795Z,6.70
2017-12-11T09:42:00.100Z,6.70
2017-12-11T09:44:03.529Z,6.70
2017-12-11T09:46:07.829Z,6.70
2017-12-11T09:48:12.056Z,6.70
2017-12-11T09:50:16.457Z,6.70
2017-12-11T09:52:19.905Z,6.70
2017-12-11T09:54:23.606Z,6.70
2017-12-11T09:56:27.912Z,6.70
2017-12-11T09:58:31.399Z,6.70
2017-12-11T10:00:34.964Z,6.70
2017-12-11T10:02:38.458Z,6.70
2017-12-11T10:04:42.702Z,6.80
2017-12-11T10:06:46.195Z,6.80
2017-12-11T10:08:49.687Z,6.90
2017-12-11T10:10:53.209Z,6.90
2017-12-11T10:12:56.703Z,7.00
2017-12-11T10:15:00.175Z,7.00
2017-12-11T10:17:03.675Z,7.00
2017-12-11T10:19:07.118Z,7.10
2017-12-11T10:21:10.551Z,7.20
2017-12-11T10:23:14.830Z,7.40
2017-12-11T10:25:18.362Z,7.40
2017-12-11T10:27:22.646Z,7.50
2017-12-11T10:29:26.107Z,7.50
2017-12-11T10:31:29.647Z,7.50
2017-12-11T10:33:33.888Z,7.60
2017-12-11T10:35:37.472Z,7.60
2017-12-11T10:37:41.723Z,7.70
2017-12-11T10:39:45.187Z,7.60
2017-12-11T10:41:48.608Z,7.70
2017-12-11T10:43:52.107Z,7.70
2017-12-11T10:45:55.610Z,7.70
2017-12-11T10:47:59.104Z,7.80
2017-12-11T10:50:02.597Z,7.70
2017-12-11T10:52:06.059Z,7.80
2017-12-11T10:54:09.555Z,7.80
2017-12-11T10:56:13.013Z,7.80
2017-12-11T10:58:16.483Z,7.80
2017-12-11T11:00:19.960Z,7.90
2017-12-11T11:02:23.473Z,7.80
2017-12-11T11:04:26.930Z,7.90
2017-12-11T11:06:30.358Z,7.90
2017-12-11T11:08:33.832Z,7.90
2017-12-11T11:10:37.243Z,8.00
2017-12-11T11:12:41.487Z,7.90
2017-12-11T11:14:46.276Z,8.00
2017-12-11T11:16:50.434Z,8.00
2017-12-11T11:18:54.749Z,8.00
2017-12-11T11:20:58.940Z,8.00
2017-12-11T11:23:02.389Z,8.00
2017-12-11T11:25:05.866Z,8.00
2017-12-11T11:27:09.317Z,8.00
2017-12-11T11:29:12.767Z,8.10
2017-12-11T11:31:16.223Z,8.10
2017-12-11T11:33:20.477Z,8.20
2017-12-11T11:35:23.919Z,8.20
2017-12-11T11:37:27.385Z,8.30
2017-12-11T11:39:30.853Z,8.20
2017-12-11T11:41:34.358Z,8.30
2017-12-11T11:43:37.799Z,8.30
2017-12-11T11:45:42.053Z,8.30
2017-12-11T11:47:45.444Z,8.20
2017-12-11T11:49:50.209Z,8.30
2017-12-11T11:51:53.620Z,8.30
2017-12-11T11:53:57.059Z,8.30
2017-12-11T11:56:00.795Z,8.30
2017-12-11T11:58:05.056Z,8.30
2017-12-11T12:00:08.632Z,8.30
2017-12-11T12:02:12.113Z,8.20
2017-12-11T12:04:16.309Z,8.20
2017-12-11T12:06:20.681Z,8.20
2017-12-11T12:08:24.116Z,8.20
2017-12-11T12:10:27.588Z,8.20
2017-12-11T12:12:31.104Z,8.20
2017-12-11T12:14:34.562Z,8.20
2017-12-11T12:16:38.033Z,8.20
2017-12-11T12:18:42.228Z,8.30
2017-12-11T12:20:46.459Z,8.30
2017-12-11T12:22:49.948Z,8.30
2017-12-11T12:24:53.518Z,8.30
2017-12-11T12:26:57.903Z,8.40
2017-12-11T12:29:01.356Z,8.40
2017-12-11T12:31:04.894Z,8.50
2017-12-11T12:33:08.419Z,8.50
2017-12-11T12:35:11.860Z,8.60
2017-12-11T12:37:15.417Z,8.60
2017-12-11T12:39:18.850Z,8.60
2017-12-11T12:41:22.324Z,8.50
2017-12-11T12:43:26.574Z,8.50
2017-12-11T12:45:30.043Z,8.50
2017-12-11T12:47:33.526Z,8.50
2017-12-11T12:49:36.988Z,8.60
2017-12-11T12:51:41.161Z,8.60
2017-12-11T12:53:44.607Z,8.70
2017-12-11T12:55:48.127Z,8.70
2017-12-11T12:57:52.035Z,8.70
2017-12-11T12:59:55.504Z,8.70
2017-12-11T13:01:59.540Z,8.70
2017-12-11T13:04:03.063Z,8.70
2017-12-11T13:06:06.496Z,8.70
2017-12-11T13:08:09.942Z,8.70
2017-12-11T13:10:14.200Z,8.60
2017-12-11T13:12:17.628Z,8.60
2017-12-11T13:14:21.076Z,8.60
2017-12-11T13:16:24.503Z,8.60
2017-12-11T13:18:28.041Z,8.70
2017-12-11T13:20:31.560Z,8.70
2017-12-11T13:22:35.235Z,8.70
2017-12-11T13:24:38.710Z,8.60
2017-12-11T13:26:42.330Z,8.60
2017-12-11T13:28:46.807Z,8.60
2017-12-11T13:30:50.324Z,8.60
2017-12-11T13:32:53.871Z,8.50
2017-12-11T13:34:57.343Z,8.40
2017-12-11T13:37:02.306Z,8.40
2017-12-11T13:39:05.897Z,8.40
2017-12-11T13:41:10.313Z,8.40
2017-12-11T13:43:14.891Z,8.40
2017-12-11T13:45:18.412Z,8.40
2017-12-11T13:47:21.882Z,8.40
2017-12-11T13:49:25.435Z,8.30
2017-12-11T13:51:29.082Z,8.20
2017-12-11T13:53:32.553Z,8.20
2017-12-11T13:55:36.012Z,8.20
2017-12-11T13:57:40.879Z,8.20
2017-12-11T13:59:44.291Z,8.20
2017-12-11T14:01:47.899Z,8.10
2017-12-11T14:03:52.135Z,8.10
2017-12-11T14:05:55.806Z,8.10
2017-12-11T14:08:00.526Z,8.10
2017-12-11T14:10:04.047Z,8.00
2017-12-11T14:12:07.480Z,8.00
2017-12-11T14:14:10.972Z,8.10
2017-12-11T14:16:14.422Z,8.00
2017-12-11T14:18:18.829Z,8.00
2017-12-11T14:20:22.275Z,8.00
2017-12-11T14:22:25.769Z,8.00
2017-12-11T14:24:29.206Z,8.00
2017-12-11T14:26:32.642Z,7.90
2017-12-11T14:28:36.885Z,7.80
2017-12-11T14:30:40.318Z,7.80
2017-12-11T14:32:44.619Z,7.70
2017-12-11T14:34:48.079Z,7.70
2017-12-11T14:36:51.563Z,7.70
2017-12-11T14:38:55.212Z,7.70
2017-12-11T14:40:58.639Z,7.70
2017-12-11T14:43:03.207Z,7.80
2017-12-11T14:45:06.916Z,7.80
2017-12-11T14:47:10.357Z,7.80
2017-12-11T14:49:13.925Z,7.90
2017-12-11T14:51:17.407Z,7.80
2017-12-11T14:53:20.881Z,7.90
2017-12-11T14:55:24.358Z,7.90
2017-12-11T14:57:28.930Z,7.90
2017-12-11T14:59:32.509Z,7.90
2017-12-11T15:01:36.586Z,8.00
2017-12-11T15:03:40.018Z,7.90
2017-12-11T15:05:43.740Z,7.90
2017-12-11T15:07:48.672Z,7.90
2017-12-11T15:09:52.636Z,7.90
2017-12-11T15:11:56.183Z,7.90
2017-12-11T15:14:00.413Z,7.90
2017-12-11T15:16:04.158Z,7.90
2017-12-11T15:18:07.713Z,7.90
2017-12-11T15:20:11.342Z,7.90
2017-12-11T15:22:16.244Z,7.90
2017-12-11T15:24:20.228Z,7.90
2017-12-11T15:26:23.815Z,7.90
2017-12-11T15:28:27.509Z,7.90
2017-12-11T15:30:31.824Z,7.80
2017-12-11T15:32:35.434Z,7.80
2017-12-11T15:34:39.112Z,7.80
2017-12-11T15:36:43.225Z,7.80
2017-12-11T15:38:47.565Z,7.80
2017-12-11T15:40:52.021Z,7.80
2017-12-11T15:42:55.857Z,7.80
2017-12-11T15:45:00.276Z,7.80
2017-12-11T15:47:04.508Z,7.80
2017-12-11T15:49:08.654Z,7.80
2017-12-11T15:51:13.564Z,7.80
2017-12-11T15:53:17.226Z,7.80
2017-12-11T15:55:21.331Z,7.80
2017-12-11T15:57:24.806Z,7.70
2017-12-11T15:59:29.167Z,7.70
2017-12-11T16:01:32.648Z,7.70
2017-12-11T16:03:40.535Z,7.70
2017-12-11T16:05:45.008Z,7.70
2017-12-11T16:07:48.476Z,7.70
2017-12-11T16:09:52.016Z,7.70
2017-12-11T16:11:56.106Z,7.70
2017-12-11T16:14:00.345Z,7.60
2017-12-11T16:16:04.836Z,7.60
2017-12-11T16:18:08.334Z,7.60
2017-12-11T16:20:11.850Z,7.60
2017-12-11T16:22:15.307Z,7.60
2017-12-11T16:24:19.565Z,7.60
2017-12-11T16:26:23.157Z,7.60
2017-12-11T16:28:26.664Z,7.60
2017-12-11T16:30:31.176Z,7.60
2017-12-11T16:32:37.176Z,7.60
2017-12-11T16:34:42.535Z,7.60
2017-12-11T16:36:46.642Z,7.60
2017-12-11T16:38:50.133Z,7.60
2017-12-11T16:40:53.726Z,7.60
2017-12-11T16:42:57.192Z,7.60
2017-12-11T16:45:01.028Z,7.60
2017-12-11T16:47:05.335Z,7.60
2017-12-11T16:49:09.635Z,7.60
2017-12-11T16:51:14.790Z,7.50
2017-12-11T16:53:18.686Z,7.50
2017-12-11T16:55:22.958Z,7.60
2017-12-11T16:57:30.865Z,7.60
2017-12-11T16:59:35.934Z,7.60
2017-12-11T17:01:39.615Z,7.50
2017-12-11T17:03:43.283Z,7.60
2017-12-11T17:05:47.598Z,7.50
2017-12-11T17:07:52.734Z,7.50
2017-12-11T17:09:56.916Z,7.50
2017-12-11T17:12:00.565Z,7.50
2017-12-11T17:14:04.086Z,7.50
2017-12-11T17:16:07.576Z,7.50
2017-12-11T17:18:11.895Z,7.50
2017-12-11T17:20:15.369Z,7.50
2017-12-11T17:22:19.243Z,7.60
2017-12-11T17:24:23.605Z,7.60
2017-12-11T17:26:27.087Z,7.60
2017-12-11T17:28:31.452Z,7.50
2017-12-11T17:30:35.027Z,7.50
2017-12-11T17:32:38.498Z,7.50
2017-12-11T17:34:42.951Z,7.50
2017-12-11T17:36:46.402Z,7.60
2017-12-11T17:38:50.024Z,7.60
2017-12-11T17:40:53.993Z,7.60
2017-12-11T17:42:58.983Z,7.50
2017-12-11T17:45:02.475Z,7.50
2017-12-11T17:47:06.355Z,7.60
2017-12-11T17:49:11.975Z,7.50
2017-12-11T17:51:16.869Z,7.50
2017-12-11T17:53:21.973Z,7.50
2017-12-11T17:55:26.255Z,7.50
2017-12-11T17:57:30.093Z,7.50
2017-12-11T17:59:33.993Z,7.50
2017-12-11T18:01:37.480Z,7.50
2017-12-11T18:03:40.962Z,7.50
2017-12-11T18:05:44.369Z,7.50
2017-12-11T18:07:48.217Z,7.50
2017-12-11T18:09:53.076Z,7.50
2017-12-11T18:11:56.627Z,7.40
2017-12-11T18:14:00.251Z,7.50
2017-12-11T18:16:03.815Z,7.50
2017-12-11T18:18:07.254Z,7.50
2017-12-11T18:20:10.999Z,7.50
2017-12-11T18:22:15.607Z,7.50
2017-12-11T18:24:19.073Z,7.50
2017-12-11T18:26:22.582Z,7.50
2017-12-11T18:28:26.594Z,7.50
2017-12-11T18:30:30.157Z,7.50
2017-12-11T18:32:34.880Z,7.40
2017-12-11T18:34:38.470Z,7.40
2017-12-11T18:36:42.813Z,7.40
2017-12-11T18:38:46.375Z,7.40
2017-12-11T18:40:49.987Z,7.40
2017-12-11T18:42:53.668Z,7.40
2017-12-11T18:44:57.857Z,7.40
2017-12-11T18:47:01.354Z,7.40
2017-12-11T18:49:05.560Z,7.40
2017-12-11T18:51:09.026Z,7.30
2017-12-11T18:53:12.480Z,7.30
2017-12-11T18:55:17.156Z,7.30
2017-12-11T18:57:20.819Z,7.30
2017-12-11T18:59:25.157Z,7.30
2017-12-11T19:01:30.131Z,7.30
2017-12-11T19:03:33.611Z,7.30
2017-12-11T19:05:37.740Z,7.30
2017-12-11T19:07:42.476Z,7.30
2017-12-11T19:09:47.676Z,7.30
2017-12-11T19:11:51.487Z,7.30
2017-12-11T19:13:55.574Z,7.20
2017-12-11T19:15:59.716Z,7.20
2017-12-11T19:18:04.406Z,7.20
2017-12-11T19:20:07.879Z,7.20
2017-12-11T19:22:11.427Z,7.10
2017-12-11T19:24:15.646Z,7.20
2017-12-11T19:26:20.445Z,7.10
2017-12-11T19:28:23.905Z,7.20
2017-12-11T19:30:28.258Z,7.20
2017-12-11T19:32:31.880Z,7.20
2017-12-11T19:34:36.084Z,7.20
2017-12-11T19:36:40.718Z,7.20
2017-12-11T19:38:46.407Z,7.10
2017-12-11T19:40:50.192Z,7.10
2017-12-11T19:42:53.655Z,7.20
2017-12-11T19:44:57.122Z,7.20
2017-12-11T19:47:00.569Z,7.20
2017-12-11T19:49:06.425Z,7.20
2017-12-11T19:51:11.352Z,7.20
2017-12-11T19:53:18.151Z,7.10
2017-12-11T19:55:22.933Z,7.10
2017-12-11T19:57:37.044Z,7.20
2017-12-11T19:59:40.702Z,7.10
2017-12-11T20:01:44.130Z,7.20
2017-12-11T20:03:47.559Z,7.20
2017-12-11T20:05:51.037Z,7.20
2017-12-11T20:07:54.444Z,7.10
2017-12-11T20:09:57.919Z,7.10
2017-12-11T20:12:01.318Z,7.10
2017-12-11T20:14:04.732Z,7.10
2017-12-11T20:16:09.802Z,7.10
2017-12-11T20:18:13.393Z,7.10
2017-12-11T20:20:16.875Z,7.10
2017-12-11T20:22:20.320Z,7.10
2017-12-11T20:24:23.741Z,7.10
2017-12-11T20:26:27.208Z,7.20
2017-12-11T20:28:31.416Z,7.20
2017-12-11T20:30:34.871Z,7.10
2017-12-11T20:32:38.360Z,7.10
2017-12-11T20:34:41.804Z,7.10
2017-12-11T20:36:46.059Z,7.00
2017-12-11T20:38:49.491Z,7.00
2017-12-11T20:40:54.591Z,6.90
2017-12-11T20:42:58.077Z,6.90
2017-12-11T20:45:01.516Z,6.90
2017-12-11T20:47:04.960Z,6.80
2017-12-11T20:49:09.241Z,6.80
2017-12-11T20:51:13.454Z,6.70
2017-12-11T20:53:16.877Z,6.70
2017-12-11T20:55:20.432Z,6.60
2017-12-11T20:57:24.052Z,6.50
2017-12-11T20:59:27.522Z,6.50
2017-12-11T21:01:31.297Z,6.40
2017-12-11T21:03:36.165Z,6.40
2017-12-11T21:05:41.818Z,6.30
2017-12-11T21:07:46.745Z,6.30
2017-12-11T21:09:53.255Z,6.20
2017-12-11T21:11:59.007Z,6.20
2017-12-11T21:14:02.571Z,6.20
2017-12-11T21:16:06.215Z,6.10
2017-12-11T21:18:10.995Z,6.10
2017-12-11T21:20:14.506Z,6.10
2017-12-11T21:22:17.954Z,6.00
2017-12-11T21:24:22.215Z,6.00
2017-12-11T21:26:25.720Z,6.00
2017-12-11T21:28:29.405Z,6.00
2017-12-11T21:30:33.430Z,6.00
2017-12-11T21:32:37.269Z,6.00
2017-12-11T21:34:41.542Z,5.90
2017-12-11T21:36:45.835Z,5.90
2017-12-11T21:38:49.273Z,5.90
2017-12-11T21:40:53.566Z,5.90
2017-12-11T21:42:57.830Z,5.90
2017-12-11T21:45:02.065Z,5.90
2017-12-11T21:47:05.510Z,5.90
2017-12-11T21:49:09.834Z,5.90
2017-12-11T21:51:15.369Z,5.90
2017-12-11T21:53:18.801Z,5.90
2017-12-11T21:55:23.151Z,5.90
2017-12-11T21:57:26.589Z,5.90
2017-12-11T21:59:30.673Z,5.90
2017-12-11T22:01:34.769Z,5.90
2017-12-11T22:03:38.257Z,5.90
2017-12-11T22:05:41.739Z,5.90
2017-12-11T22:07:45.146Z,5.90
2017-12-11T22:09:48.627Z,5.80
2017-12-11T22:11:52.186Z,5.80
2017-12-11T22:13:55.690Z,5.90
2017-12-11T22:15:59.164Z,5.80
2017-12-11T22:18:02.607Z,5.80
2017-12-11T22:20:06.767Z,5.90
2017-12-11T22:22:11.037Z,5.80
2017-12-11T22:24:14.631Z,5.80
2017-12-11T22:26:19.241Z,5.80
2017-12-11T22:28:22.747Z,5.70
2017-12-11T22:30:26.551Z,5.80
2017-12-11T22:32:30.021Z,5.80
2017-12-11T22:34:33.574Z,5.70
2017-12-11T22:36:37.076Z,5.70
2017-12-11T22:38:41.386Z,5.70
2017-12-11T22:40:44.794Z,5.70
2017-12-11T22:42:50.115Z,5.60
2017-12-11T22:44:54.948Z,5.60
2017-12-11T22:46:59.030Z,5.50
2017-12-11T22:49:04.576Z,5.50
2017-12-11T22:51:08.338Z,5.50
2017-12-11T22:53:11.787Z,5.40
2017-12-11T22:55:16.002Z,5.40
2017-12-11T22:57:19.624Z,5.40
2017-12-11T22:59:23.093Z,5.40
2017-12-11T23:01:26.560Z,5.40
2017-12-11T23:03:30.047Z,5.40
2017-12-11T23:05:33.496Z,5.40
2017-12-11T23:07:37.769Z,5.40
2017-12-11T23:09:41.374Z,5.40
2017-12-11T23:11:44.786Z,5.40
2017-12-11T23:13:49.711Z,5.30
2017-12-11T23:15:55.476Z,5.30
2017-12-11T23:17:58.979Z,5.40
2017-12-11T23:20:02.642Z,5.30
2017-12-11T23:22:06.084Z,5.30
2017-12-11T23:24:09.635Z,5.30
2017-12-11T23:26:13.457Z,5.30
2017-12-11T23:28:17.549Z,5.30
2017-12-11T23:30:21.944Z,5.30
2017-12-11T23:32:25.836Z,5.30
2017-12-11T23:34:29.299Z,5.30
2017-12-11T23:36:32.778Z,5.40
2017-12-11T23:38:38.339Z,5.30
2017-12-11T23:40:42.599Z,5.40
2017-12-11T23:42:46.942Z,5.30
2017-12-11T23:44:51.440Z,5.30
2017-12-11T23:46:55.071Z,5.30
2017-12-11T23:48:59.576Z,5.40
2017-12-11T23:51:03.947Z,5.40
2017-12-11T23:53:07.999Z,5.30
2017-12-11T23:55:12.048Z,5.40
2017-12-11T23:57:16.821Z,5.30
2017-12-11T23:59:20.759Z,5.30
